Chicago, Illinois
Traffic Map
Current Weather Conditions
Chicago, Illinois
Overcast Light Snow
Overcast
-6°
Feels Like: -9°
Wind Chill: -9° Ceiling: 8000
Heat Index: -6° Visibility: 9mi
Dew Point: -11° Wind: 5mph
Humidity: 68% Direction: 170° (S)
Pressure: 30.33in Gusts: 0mph
Raw Report DataKMDW 281053Z 17004KT 9SM -SN OVC080 M06/M11 A3033 RMK AO2 SNB38 SLP287 P0000 T10561106 $
Traffic Incident Summary
Active as of:
Severity:
Category:
InformationThere was an issue retrieving the traffic information for this location. Please try a different location or try again shortly.
Advertisements
Track Severe Weather on mobile